BCCO2: Caney Creek nr Barber, OK

Data processed at Sat Mar 10 2018 23:14


All information presented herein is the property of the government of the United States of America and may be revised or deleted at any time without prior notice.
Dissemination of this information without the expressed written consent of the Public Affairs Office, Tulsa District U.S. Army Corps of Engineers is strictly prohibited.
These data are gathered electronically and, as presented, have not undergone any form of quality control. These data are not guaranteed to be valid or correct.
Go to home page.
Go to station list.

Downstream station:


Previous Day
Next Day
Current Day
    
SHEF ID:       BCCO2     Caney Creek near Barber, OK
STATION TYPE:  

               PRECIP     STAGE  STAGE(2)  RIV-FLOW  BAT-LOAD
                   in        ft        ft       cfs      volt
              Ccp-Rev   Ccp-Rev   Ccp-Rev   Ccp-Rev   Ccp-Rev
(US/Central)
03/08 00:00      0.00      7.84      7.95       833     12.49
03/08 01:00      0.00      7.80      7.90       802     12.49
03/08 02:00      0.00      7.75      7.85       765     12.49
03/08 03:00      0.00      7.68      7.80       714     12.41
03/08 04:00      0.00      7.64      7.75       686     12.41
03/08 05:00      0.00      7.60      7.71       659     12.41
03/08 06:00      0.00      7.56      7.66       632     12.41
03/08 07:00      0.00      7.51      7.61       600     12.33
03/08 08:00      0.00      7.44      7.57       556     12.41
03/08 09:00      0.00      7.41      7.53       538     12.41
03/08 10:00      0.00      7.32      7.48       483     12.49
03/08 11:00      0.00      7.33      7.43       489     12.65
03/08 12:00      0.00      7.29      7.41       465     12.73
03/08 13:00      0.00      7.23      7.36       431     13.13
03/08 14:00      0.00      7.16      7.31       394     13.37
03/08 15:00      0.00      7.13      7.27       378     13.37
03/08 16:00      0.00      7.08      7.22       353     13.37
03/08 17:00      0.00      7.05      7.18       339     13.37
03/08 18:00      0.00      7.00      7.13       316     13.37
03/08 19:00      0.00      6.92      7.08       284     13.05
03/08 20:00      0.00      6.89      7.02       272     12.65
03/08 21:00      0.00      6.86      6.99       261     12.65
03/08 22:00      0.00      6.81      6.94       243     12.57
03/08 23:00      0.00      6.76      6.89       226     12.57